sensor_id;sensor_type;location;lat;lon;timestamp;pressure;altitude;pressure_sealevel;temperature;humidity
29569;BME280;16501;51.462;14.346;2023-12-20T00:01:08;99675.50;;;4.91;100.00
29569;BME280;16501;51.462;14.346;2023-12-20T00:03:33;99657.50;;;4.83;100.00
29569;BME280;16501;51.462;14.346;2023-12-20T00:05:58;99658.94;;;4.88;100.00
29569;BME280;16501;51.462;14.346;2023-12-20T00:08:24;99653.63;;;4.81;100.00
29569;BME280;16501;51.462;14.346;2023-12-20T00:10:49;99653.94;;;4.83;100.00
29569;BME280;16501;51.462;14.346;2023-12-20T00:13:14;99651.53;;;4.72;100.00
29569;BME280;16501;51.462;14.346;2023-12-20T00:15:39;99649.53;;;4.72;100.00
29569;BME280;16501;51.462;14.346;2023-12-20T00:18:05;99650.94;;;4.77;100.00
29569;BME280;16501;51.462;14.346;2023-12-20T00:20:30;99650.19;;;4.77;100.00
29569;BME280;16501;51.462;14.346;2023-12-20T00:22:57;99670.63;;;4.83;100.00
29569;BME280;16501;51.462;14.346;2023-12-20T00:25:25;99659.06;;;4.84;100.00
29569;BME280;16501;51.462;14.346;2023-12-20T00:27:51;99641.84;;;4.77;100.00
29569;BME280;16501;51.462;14.346;2023-12-20T00:30:16;99659.75;;;4.76;100.00
29569;BME280;16501;51.462;14.346;2023-12-20T00:32:42;99634.22;;;4.55;100.00
29569;BME280;16501;51.462;14.346;2023-12-20T00:35:15;99642.31;;;4.62;100.00
29569;BME280;16501;51.462;14.346;2023-12-20T00:37:41;99658.31;;;4.71;100.00
29569;BME280;16501;51.462;14.346;2023-12-20T00:40:07;99635.22;;;4.61;100.00
29569;BME280;16501;51.462;14.346;2023-12-20T00:42:33;99648.53;;;4.66;100.00
29569;BME280;16501;51.462;14.346;2023-12-20T00:44:59;99612.03;;;4.42;100.00
29569;BME280;16501;51.462;14.346;2023-12-20T00:47:24;99627.34;;;4.47;100.00
29569;BME280;16501;51.462;14.346;2023-12-20T00:49:49;99649.53;;;4.72;100.00
29569;BME280;16501;51.462;14.346;2023-12-20T00:52:15;99641.56;;;4.62;100.00
29569;BME280;16501;51.462;14.346;2023-12-20T00:54:42;99640.75;;;4.61;100.00
29569;BME280;16501;51.462;14.346;2023-12-20T00:57:07;99637.44;;;4.53;100.00
29569;BME280;16501;51.462;14.346;2023-12-20T00:59:32;99626.03;;;4.51;100.00
29569;BME280;16501;51.462;14.346;2023-12-20T01:01:58;99640.19;;;4.66;100.00
29569;BME280;16501;51.462;14.346;2023-12-20T02:31:26;99562.91;;;4.17;100.00
29569;BME280;16501;51.462;14.346;2023-12-20T02:33:51;99545.03;;;4.05;100.00
29569;BME280;16501;51.462;14.346;2023-12-20T02:36:16;99560.81;;;4.08;100.00
29569;BME280;16501;51.462;14.346;2023-12-20T02:38:42;99550.47;;;4.09;100.00
29569;BME280;16501;51.462;14.346;2023-12-20T02:41:07;99543.16;;;4.02;100.00
29569;BME280;16501;51.462;14.346;2023-12-20T02:43:32;99547.03;;;4.05;100.00
29569;BME280;16501;51.462;14.346;2023-12-20T02:45:57;99569.44;;;4.10;100.00
29569;BME280;16501;51.462;14.346;2023-12-20T02:48:23;99558.47;;;4.07;100.00
29569;BME280;16501;51.462;14.346;2023-12-20T02:50:48;99524.09;;;3.91;100.00
29569;BME280;16501;51.462;14.346;2023-12-20T02:53:14;99549.06;;;4.04;100.00
29569;BME280;16501;51.462;14.346;2023-12-20T02:55:39;99577.09;;;4.19;100.00
29569;BME280;16501;51.462;14.346;2023-12-20T02:58:04;99559.47;;;4.13;100.00
29569;BME280;16501;51.462;14.346;2023-12-20T03:00:30;99556.91;;;4.06;100.00
29569;BME280;16501;51.462;14.346;2023-12-20T03:02:55;99561.56;;;4.09;100.00
29569;BME280;16501;51.462;14.346;2023-12-20T03:05:20;99561.13;;;4.10;100.00
29569;BME280;16501;51.462;14.346;2023-12-20T03:07:46;99559.81;;;4.15;100.00
29569;BME280;16501;51.462;14.346;2023-12-20T03:10:11;99563.47;;;4.12;100.00
29569;BME280;16501;51.462;14.346;2023-12-20T03:12:36;99578.66;;;4.20;100.00
29569;BME280;16501;51.462;14.346;2023-12-20T03:15:02;99523.19;;;3.94;100.00
29569;BME280;16501;51.462;14.346;2023-12-20T03:17:27;99553.56;;;4.11;100.00
29569;BME280;16501;51.462;14.346;2023-12-20T03:19:52;99553.56;;;4.11;100.00
29569;BME280;16501;51.462;14.346;2023-12-20T03:22:20;99556.25;;;4.14;100.00
29569;BME280;16501;51.462;14.346;2023-12-20T03:24:45;99559.81;;;4.15;100.00
29569;BME280;16501;51.462;14.346;2023-12-20T03:27:10;99523.84;;;3.99;100.00
29569;BME280;16501;51.462;14.346;2023-12-20T03:29:36;99547.69;;;4.09;100.00
29569;BME280;16501;51.462;14.346;2023-12-20T03:32:01;99548.13;;;4.07;100.00
29569;BME280;16501;51.462;14.346;2023-12-20T03:34:26;99540.69;;;4.17;100.00
29569;BME280;16501;51.462;14.346;2023-12-20T03:36:52;99550.78;;;4.11;100.00
29569;BME280;16501;51.462;14.346;2023-12-20T03:39:17;99535.38;;;4.10;100.00
29569;BME280;16501;51.462;14.346;2023-12-20T03:41:42;99525.28;;;4.03;100.00
29569;BME280;16501;51.462;14.346;2023-12-20T03:44:07;99521.63;;;3.93;100.00
29569;BME280;16501;51.462;14.346;2023-12-20T03:46:33;99545.03;;;4.18;100.00
29569;BME280;16501;51.462;14.346;2023-12-20T03:48:58;99488.72;;;3.70;100.00
29569;BME280;16501;51.462;14.346;2023-12-20T03:51:23;99546.47;;;4.10;100.00
29569;BME280;16501;51.462;14.346;2023-12-20T03:53:48;99511.69;;;3.83;100.00
29569;BME280;16501;51.462;14.346;2023-12-20T03:56:14;99541.63;;;4.01;100.00
29569;BME280;16501;51.462;14.346;2023-12-20T03:58:39;99544.59;;;4.07;100.00
29569;BME280;16501;51.462;14.346;2023-12-20T04:01:09;99510.91;;;3.95;100.00
29569;BME280;16501;51.462;14.346;2023-12-20T04:03:35;99530.72;;;4.07;100.00
29569;BME280;16501;51.462;14.346;2023-12-20T04:06:00;99543.16;;;4.15;100.00
29569;BME280;16501;51.462;14.346;2023-12-20T04:08:25;99523.63;;;4.06;100.00
29569;BME280;16501;51.462;14.346;2023-12-20T04:10:51;99504.25;;;3.80;100.00
29569;BME280;16501;51.462;14.346;2023-12-20T04:13:16;99534.81;;;4.02;100.00
29569;BME280;16501;51.462;14.346;2023-12-20T04:15:41;99530.53;;;4.01;100.00
29569;BME280;16501;51.462;14.346;2023-12-20T04:18:06;99519.66;;;3.94;100.00
29569;BME280;16501;51.462;14.346;2023-12-20T04:20:32;99550.47;;;4.09;100.00
29569;BME280;16501;51.462;14.346;2023-12-20T04:22:57;99517.31;;;3.92;100.00
29569;BME280;16501;51.462;14.346;2023-12-20T04:25:22;99534.38;;;4.04;100.00
29569;BME280;16501;51.462;14.346;2023-12-20T04:27:47;99528.06;;;4.03;100.00
29569;BME280;16501;51.462;14.346;2023-12-20T04:30:13;99527.75;;;4.01;100.00
29569;BME280;16501;51.462;14.346;2023-12-20T04:32:38;99523.41;;;4.00;100.00
29569;BME280;16501;51.462;14.346;2023-12-20T04:35:04;99526.06;;;4.04;100.00
29569;BME280;16501;51.462;14.346;2023-12-20T04:37:29;99519.88;;;4.00;100.00
29569;BME280;16501;51.462;14.346;2023-12-20T04:39:54;99497.59;;;3.90;100.00
29569;BME280;16501;51.462;14.346;2023-12-20T04:42:20;99535.19;;;4.04;100.00
29569;BME280;16501;51.462;14.346;2023-12-20T04:44:45;99498.78;;;3.89;100.00
29569;BME280;16501;51.462;14.346;2023-12-20T04:47:10;99493.72;;;3.75;100.00
29569;BME280;16501;51.462;14.346;2023-12-20T04:49:35;99527.88;;;3.97;100.00
29569;BME280;16501;51.462;14.346;2023-12-20T04:52:01;99526.41;;;3.93;100.00
29569;BME280;16501;51.462;14.346;2023-12-20T04:54:26;99525.75;;;3.89;100.00
29569;BME280;16501;51.462;14.346;2023-12-20T04:56:51;99541.94;;;4.03;100.00
29569;BME280;16501;51.462;14.346;2023-12-20T04:59:17;99512.78;;;3.86;100.00
29569;BME280;16501;51.462;14.346;2023-12-20T05:01:42;99521.44;;;3.88;100.00
29569;BME280;16501;51.462;14.346;2023-12-20T05:04:07;99490.16;;;3.62;100.00
29569;BME280;16501;51.462;14.346;2023-12-20T05:06:32;99532.16;;;3.99;100.00
29569;BME280;16501;51.462;14.346;2023-12-20T05:08:58;99540.38;;;4.02;100.00
29569;BME280;16501;51.462;14.346;2023-12-20T05:11:23;99534.19;;;3.98;100.00
29569;BME280;16501;51.462;14.346;2023-12-20T05:13:50;99521.63;;;3.93;100.00
29569;BME280;16501;51.462;14.346;2023-12-20T05:16:16;99549.81;;;4.05;100.00
29569;BME280;16501;51.462;14.346;2023-12-20T05:18:43;99560.16;;;4.04;100.00
29569;BME280;16501;51.462;14.346;2023-12-20T05:21:08;99557.13;;;3.99;100.00
29569;BME280;16501;51.462;14.346;2023-12-20T05:23:34;99536.84;;;3.89;100.00
29569;BME280;16501;51.462;14.346;2023-12-20T05:25:59;99543.72;;;3.84;100.00
29569;BME280;16501;51.462;14.346;2023-12-20T05:28:25;99566.38;;;3.95;100.00
29569;BME280;16501;51.462;14.346;2023-12-20T05:30:50;99558.03;;;3.95;100.00
29569;BME280;16501;51.462;14.346;2023-12-20T05:33:16;99555.84;;;3.90;100.00
29569;BME280;16501;51.462;14.346;2023-12-20T05:35:41;99554.47;;;3.95;100.00
29569;BME280;16501;51.462;14.346;2023-12-20T05:38:06;99547.72;;;3.96;100.00
29569;BME280;16501;51.462;14.346;2023-12-20T05:40:32;99543.50;;;3.91;100.00
29569;BME280;16501;51.462;14.346;2023-12-20T05:42:57;99558.38;;;3.97;100.00
29569;BME280;16501;51.462;14.346;2023-12-20T05:45:22;99544.72;;;3.90;100.00
29569;BME280;16501;51.462;14.346;2023-12-20T05:47:47;99561.59;;;3.96;100.00
29569;BME280;16501;51.462;14.346;2023-12-20T05:50:13;99569.69;;;4.03;100.00
29569;BME280;16501;51.462;14.346;2023-12-20T05:52:38;99571.25;;;4.04;100.00
29569;BME280;16501;51.462;14.346;2023-12-20T05:55:03;99559.78;;;4.02;100.00
29569;BME280;16501;51.462;14.346;2023-12-20T05:57:29;99566.47;;;4.05;100.00
29569;BME280;16501;51.462;14.346;2023-12-20T05:59:54;99558.91;;;4.05;100.00
29569;BME280;16501;51.462;14.346;2023-12-20T06:02:19;99543.81;;;3.93;100.00
29569;BME280;16501;51.462;14.346;2023-12-20T06:04:45;99571.69;;;4.03;100.00
29569;BME280;16501;51.462;14.346;2023-12-20T06:07:14;99588.09;;;4.10;100.00
29569;BME280;16501;51.462;14.346;2023-12-20T06:09:39;99552.03;;;3.84;100.00
29569;BME280;16501;51.462;14.346;2023-12-20T06:12:05;99583.88;;;4.05;100.00
29569;BME280;16501;51.462;14.346;2023-12-20T06:14:30;99574.47;;;4.03;100.00
29569;BME280;16501;51.462;14.346;2023-12-20T06:16:56;99573.78;;;3.99;100.00
29569;BME280;16501;51.462;14.346;2023-12-20T06:19:22;99554.91;;;3.93;100.00
29569;BME280;16501;51.462;14.346;2023-12-20T06:21:47;99544.97;;;3.83;100.00
29569;BME280;16501;51.462;14.346;2023-12-20T06:24:12;99549.81;;;3.79;100.00
29569;BME280;16501;51.462;14.346;2023-12-20T06:26:37;99542.38;;;3.76;100.00
29569;BME280;16501;51.462;14.346;2023-12-20T06:29:03;99550.16;;;3.81;100.00
29569;BME280;16501;51.462;14.346;2023-12-20T06:31:28;99575.78;;;3.98;100.00
29569;BME280;16501;51.462;14.346;2023-12-20T06:33:54;99567.25;;;3.92;100.00
29569;BME280;16501;51.462;14.346;2023-12-20T06:36:25;99581.00;;;3.96;100.00
29569;BME280;16501;51.462;14.346;2023-12-20T06:38:51;99577.00;;;3.84;100.00
29569;BME280;16501;51.462;14.346;2023-12-20T06:41:16;99564.56;;;3.76;100.00
29569;BME280;16501;51.462;14.346;2023-12-20T06:43:42;99583.56;;;3.90;100.00
29569;BME280;16501;51.462;14.346;2023-12-20T06:46:07;99580.00;;;3.77;100.00
29569;BME280;16501;51.462;14.346;2023-12-20T06:48:32;99563.81;;;3.63;100.00
29569;BME280;16501;51.462;14.346;2023-12-20T06:51:00;99591.75;;;3.81;100.00
29569;BME280;16501;51.462;14.346;2023-12-20T06:53:25;99596.97;;;3.79;100.00
29569;BME280;16501;51.462;14.346;2023-12-20T06:55:50;99594.88;;;3.83;100.00
29569;BME280;16501;51.462;14.346;2023-12-20T06:58:15;99596.19;;;3.78;100.00
29569;BME280;16501;51.462;14.346;2023-12-20T07:00:41;99589.88;;;3.78;100.00
29569;BME280;16501;51.462;14.346;2023-12-20T07:03:06;99606.97;;;3.76;100.00
29569;BME280;16501;51.462;14.346;2023-12-20T07:05:32;99554.34;;;3.47;100.00
29569;BME280;16501;51.462;14.346;2023-12-20T07:07:58;99615.50;;;3.82;100.00
29569;BME280;16501;51.462;14.346;2023-12-20T07:10:23;99594.31;;;3.75;100.00
29569;BME280;16501;51.462;14.346;2023-12-20T07:12:48;99589.75;;;3.69;100.00
29569;BME280;16501;51.462;14.346;2023-12-20T07:15:14;99619.69;;;3.74;100.00
29569;BME280;16501;51.462;14.346;2023-12-20T07:17:39;99609.84;;;3.73;100.00
29569;BME280;16501;51.462;14.346;2023-12-20T07:20:05;99605.50;;;3.72;100.00
29569;BME280;16501;51.462;14.346;2023-12-20T07:22:38;99621.25;;;3.75;100.00
29569;BME280;16501;51.462;14.346;2023-12-20T07:25:04;99620.38;;;3.78;100.00
29569;BME280;16501;51.462;14.346;2023-12-20T07:27:30;99612.25;;;3.58;100.00
29569;BME280;16501;51.462;14.346;2023-12-20T07:29:55;99626.13;;;3.71;100.00
29569;BME280;16501;51.462;14.346;2023-12-20T07:32:20;99616.38;;;3.66;100.00
29569;BME280;16501;51.462;14.346;2023-12-20T07:34:46;99616.03;;;3.64;100.00
29569;BME280;16501;51.462;14.346;2023-12-20T07:37:11;99613.28;;;3.64;100.00
29569;BME280;16501;51.462;14.346;2023-12-20T07:39:40;99610.34;;;3.55;100.00
29569;BME280;16501;51.462;14.346;2023-12-20T07:42:06;99622.25;;;3.68;100.00
29569;BME280;16501;51.462;14.346;2023-12-20T07:44:31;99608.72;;;3.57;100.00
29569;BME280;16501;51.462;14.346;2023-12-20T07:46:57;99617.78;;;3.58;100.00
29569;BME280;16501;51.462;14.346;2023-12-20T07:49:23;99616.78;;;3.52;100.00
29569;BME280;16501;51.462;14.346;2023-12-20T07:51:48;99623.13;;;3.65;100.00
29569;BME280;16501;51.462;14.346;2023-12-20T07:54:13;99621.22;;;3.62;100.00
29569;BME280;16501;51.462;14.346;2023-12-20T07:56:38;99620.03;;;3.63;100.00
29569;BME280;16501;51.462;14.346;2023-12-20T07:59:05;99607.69;;;3.51;100.00
29569;BME280;16501;51.462;14.346;2023-12-20T08:01:30;99600.94;;;3.52;100.00
29569;BME280;16501;51.462;14.346;2023-12-20T08:03:55;99596.03;;;3.44;100.00
29569;BME280;16501;51.462;14.346;2023-12-20T08:06:22;99617.03;;;3.57;100.00
29569;BME280;16501;51.462;14.346;2023-12-20T08:08:47;99599.91;;;3.46;100.00
29569;BME280;16501;51.462;14.346;2023-12-20T08:11:12;99623.09;;;3.52;100.00
29569;BME280;16501;51.462;14.346;2023-12-20T08:13:37;99627.41;;;3.53;100.00
29569;BME280;16501;51.462;14.346;2023-12-20T08:16:03;99621.88;;;3.53;100.00
29569;BME280;16501;51.462;14.346;2023-12-20T08:18:29;99621.34;;;3.58;100.00
29569;BME280;16501;51.462;14.346;2023-12-20T08:20:54;99613.72;;;3.63;100.00
29569;BME280;16501;51.462;14.346;2023-12-20T08:23:20;99596.38;;;3.58;100.00
29569;BME280;16501;51.462;14.346;2023-12-20T08:25:48;99614.16;;;3.74;100.00
29569;BME280;16501;51.462;14.346;2023-12-20T08:28:14;99619.47;;;3.68;100.00
29569;BME280;16501;51.462;14.346;2023-12-20T08:30:39;99614.47;;;3.76;100.00
29569;BME280;16501;51.462;14.346;2023-12-20T08:33:05;99614.03;;;3.77;100.00
29569;BME280;16501;51.462;14.346;2023-12-20T08:35:32;99620.16;;;3.85;100.00
29569;BME280;16501;51.462;14.346;2023-12-20T08:37:58;99610.75;;;3.95;100.00
29569;BME280;16501;51.462;14.346;2023-12-20T08:40:23;99621.41;;;4.10;100.00
29569;BME280;16501;51.462;14.346;2023-12-20T08:42:48;99608.84;;;4.05;100.00
29569;BME280;16501;51.462;14.346;2023-12-20T08:45:14;99601.97;;;4.10;100.00
29569;BME280;16501;51.462;14.346;2023-12-20T08:47:39;99614.84;;;4.17;100.00
29569;BME280;16501;51.462;14.346;2023-12-20T08:50:13;99611.28;;;4.16;100.00
29569;BME280;16501;51.462;14.346;2023-12-20T08:52:38;99613.41;;;4.12;100.00
29569;BME280;16501;51.462;14.346;2023-12-20T08:55:03;99603.06;;;4.12;100.00
29569;BME280;16501;51.462;14.346;2023-12-20T08:57:29;99616.63;;;4.10;100.00
29569;BME280;16501;51.462;14.346;2023-12-20T08:59:56;99616.19;;;4.12;100.00
29569;BME280;16501;51.462;14.346;2023-12-20T09:02:21;99600.31;;;4.00;100.00
29569;BME280;16501;51.462;14.346;2023-12-20T09:04:47;99623.06;;;4.20;100.00
29569;BME280;16501;51.462;14.346;2023-12-20T09:07:25;99612.84;;;4.17;100.00
29569;BME280;16501;51.462;14.346;2023-12-20T09:09:52;99607.63;;;4.19;100.00
29569;BME280;16501;51.462;14.346;2023-12-20T09:12:21;99610.41;;;4.19;100.00
29569;BME280;16501;51.462;14.346;2023-12-20T09:14:50;99600.72;;;4.11;100.00
29569;BME280;16501;51.462;14.346;2023-12-20T09:17:16;99570.03;;;3.92;100.00
29569;BME280;16501;51.462;14.346;2023-12-20T09:19:42;99614.28;;;4.22;100.00
29569;BME280;16501;51.462;14.346;2023-12-20T09:22:09;99618.16;;;4.24;100.00
29569;BME280;16501;51.462;14.346;2023-12-20T09:24:34;99592.41;;;4.11;100.00
29569;BME280;16501;51.462;14.346;2023-12-20T09:26:59;99612.84;;;4.17;100.00
29569;BME280;16501;51.462;14.346;2023-12-20T09:29:24;99604.97;;;4.15;100.00
29569;BME280;16501;51.462;14.346;2023-12-20T09:31:50;99614.84;;;4.29;100.00
29569;BME280;16501;51.462;14.346;2023-12-20T09:34:16;99617.16;;;4.31;100.00
29569;BME280;16501;51.462;14.346;2023-12-20T09:36:42;99605.84;;;4.25;100.00
29569;BME280;16501;51.462;14.346;2023-12-20T09:39:16;99614.06;;;4.29;100.00
29569;BME280;16501;51.462;14.346;2023-12-20T09:42:01;99608.72;;;4.34;100.00
29569;BME280;16501;51.462;14.346;2023-12-20T09:44:27;99603.63;;;4.33;100.00
29569;BME280;16501;51.462;14.346;2023-12-20T09:46:56;99602.69;;;4.49;100.00
29569;BME280;16501;51.462;14.346;2023-12-20T09:49:22;99593.22;;;4.59;100.00
29569;BME280;16501;51.462;14.346;2023-12-20T09:51:47;99587.88;;;4.65;100.00
29569;BME280;16501;51.462;14.346;2023-12-20T09:54:14;99594.69;;;4.64;100.00
29569;BME280;16501;51.462;14.346;2023-12-20T09:56:40;99571.34;;;4.61;100.00
29569;BME280;16501;51.462;14.346;2023-12-20T09:59:05;99585.53;;;4.76;100.00
29569;BME280;16501;51.462;14.346;2023-12-20T10:01:31;99572.91;;;4.62;100.00
29569;BME280;16501;51.462;14.346;2023-12-20T10:03:57;99570.13;;;4.62;100.00
29569;BME280;16501;51.462;14.346;2023-12-20T10:06:24;99563.59;;;4.56;100.00
29569;BME280;16501;51.462;14.346;2023-12-20T10:08:49;99562.50;;;4.53;100.00
29569;BME280;16501;51.462;14.346;2023-12-20T10:11:14;99568.13;;;4.63;100.00
29569;BME280;16501;51.462;14.346;2023-12-20T10:13:40;99574.91;;;4.62;100.00
29569;BME280;16501;51.462;14.346;2023-12-20T10:16:06;99548.63;;;4.53;100.00
29569;BME280;16501;51.462;14.346;2023-12-20T10:18:32;99577.66;;;4.75;100.00
29569;BME280;16501;51.462;14.346;2023-12-20T10:20:57;99594.06;;;4.82;100.00
29569;BME280;16501;51.462;14.346;2023-12-20T10:23:23;99564.91;;;4.64;100.00
29569;BME280;16501;51.462;14.346;2023-12-20T10:25:58;99572.97;;;4.71;100.00
29569;BME280;16501;51.462;14.346;2023-12-20T10:28:24;99549.94;;;4.49;100.00
29569;BME280;16501;51.462;14.346;2023-12-20T10:30:53;99548.50;;;4.57;100.00
29569;BME280;16501;51.462;14.346;2023-12-20T10:33:26;99550.94;;;4.55;100.00
29569;BME280;16501;51.462;14.346;2023-12-20T10:35:52;99542.06;;;4.47;100.00
29569;BME280;16501;51.462;14.346;2023-12-20T10:38:18;99537.81;;;4.56;100.00
29569;BME280;16501;51.462;14.346;2023-12-20T10:40:45;99504.72;;;4.26;100.00
29569;BME280;16501;51.462;14.346;2023-12-20T10:43:11;99528.28;;;4.57;100.00
29569;BME280;16501;51.462;14.346;2023-12-20T10:45:36;99533.41;;;4.58;100.00
29569;BME280;16501;51.462;14.346;2023-12-20T10:48:01;99537.06;;;4.55;100.00
29569;BME280;16501;51.462;14.346;2023-12-20T10:50:27;99542.38;;;4.62;100.00
29569;BME280;16501;51.462;14.346;2023-12-20T10:52:54;99499.13;;;4.39;100.00
29569;BME280;16501;51.462;14.346;2023-12-20T10:55:21;99533.22;;;4.75;100.00
29569;BME280;16501;51.462;14.346;2023-12-20T10:57:47;99524.56;;;5.17;100.00
29569;BME280;16501;51.462;14.346;2023-12-20T11:00:17;99523.97;;;5.22;100.00
29569;BME280;16501;51.462;14.346;2023-12-20T11:02:43;99538.75;;;5.72;100.00
29569;BME280;16501;51.462;14.346;2023-12-20T11:08:43;99534.53;;;5.36;100.00
29569;BME280;16501;51.462;14.346;2023-12-20T11:14:14;99529.59;;;5.09;100.00
29569;BME280;16501;51.462;14.346;2023-12-20T11:16:41;99535.03;;;5.13;100.00
29569;BME280;16501;51.462;14.346;2023-12-20T11:19:06;99499.34;;;4.89;100.00
29569;BME280;16501;51.462;14.346;2023-12-20T11:21:32;99514.53;;;4.97;100.00
29569;BME280;16501;51.462;14.346;2023-12-20T11:23:57;99517.47;;;4.94;100.00
29569;BME280;16501;51.462;14.346;2023-12-20T11:26:26;99492.19;;;4.79;100.00
29569;BME280;16501;51.462;14.346;2023-12-20T11:28:53;99515.25;;;4.88;100.00
29569;BME280;16501;51.462;14.346;2023-12-20T11:31:19;99481.91;;;4.66;100.00
29569;BME280;16501;51.462;14.346;2023-12-20T11:33:44;99511.59;;;4.91;100.00
29569;BME280;16501;51.462;14.346;2023-12-20T11:36:14;99502.94;;;4.89;100.00
29569;BME280;16501;51.462;14.346;2023-12-20T11:38:54;99514.13;;;5.30;100.00
29569;BME280;16501;51.462;14.346;2023-12-20T11:41:22;99488.66;;;5.72;100.00
29569;BME280;16501;51.462;14.346;2023-12-20T11:43:52;99485.84;;;6.13;100.00
29569;BME280;16501;51.462;14.346;2023-12-20T11:46:17;99465.53;;;5.94;100.00
29569;BME280;16501;51.462;14.346;2023-12-20T11:48:44;99480.19;;;5.85;100.00
29569;BME280;16501;51.462;14.346;2023-12-20T11:51:13;99485.28;;;5.77;100.00
29569;BME280;16501;51.462;14.346;2023-12-20T11:53:39;99472.00;;;5.81;100.00
29569;BME280;16501;51.462;14.346;2023-12-20T11:56:08;99449.59;;;5.76;100.00
29569;BME280;16501;51.462;14.346;2023-12-20T11:58:34;99464.06;;;5.61;100.00
29569;BME280;16501;51.462;14.346;2023-12-20T12:01:00;99467.91;;;5.55;100.00
29569;BME280;16501;51.462;14.346;2023-12-20T12:03:27;99459.88;;;5.57;100.00
29569;BME280;16501;51.462;14.346;2023-12-20T12:05:52;99450.25;;;5.48;100.00
29569;BME280;16501;51.462;14.346;2023-12-20T12:08:18;99456.44;;;5.43;100.00
29569;BME280;16501;51.462;14.346;2023-12-20T12:10:44;99438.22;;;5.42;100.00
29569;BME280;16501;51.462;14.346;2023-12-20T12:13:10;99452.88;;;5.43;100.00
29569;BME280;16501;51.462;14.346;2023-12-20T12:15:36;99452.72;;;5.46;100.00
29569;BME280;16501;51.462;14.346;2023-12-20T12:18:02;99456.75;;;5.45;100.00
29569;BME280;16501;51.462;14.346;2023-12-20T12:20:27;99429.50;;;5.31;100.00
29569;BME280;16501;51.462;14.346;2023-12-20T12:23:03;99460.75;;;5.44;100.00
29569;BME280;16501;51.462;14.346;2023-12-20T12:25:30;99396.53;;;5.11;100.00
29569;BME280;16501;51.462;14.346;2023-12-20T12:27:57;99438.19;;;5.33;100.00
29569;BME280;16501;51.462;14.346;2023-12-20T12:30:22;99428.59;;;5.34;100.00
29569;BME280;16501;51.462;14.346;2023-12-20T12:32:48;99415.44;;;5.25;100.00
29569;BME280;16501;51.462;14.346;2023-12-20T12:35:14;99414.34;;;5.23;100.00
29569;BME280;16501;51.462;14.346;2023-12-20T12:37:40;99381.09;;;5.10;100.00
29569;BME280;16501;51.462;14.346;2023-12-20T12:40:09;99396.78;;;5.26;100.00
29569;BME280;16501;51.462;14.346;2023-12-20T12:42:35;99410.84;;;5.32;100.00
29569;BME280;16501;51.462;14.346;2023-12-20T12:45:00;99411.91;;;5.34;100.00
29569;BME280;16501;51.462;14.346;2023-12-20T12:47:25;99396.13;;;5.31;100.00
29569;BME280;16501;51.462;14.346;2023-12-20T12:49:51;99383.78;;;5.23;100.00
29569;BME280;16501;51.462;14.346;2023-12-20T12:52:17;99408.50;;;5.30;100.00
29569;BME280;16501;51.462;14.346;2023-12-20T12:54:42;99378.81;;;5.18;100.00
29569;BME280;16501;51.462;14.346;2023-12-20T12:57:10;99383.78;;;5.23;100.00
29569;BME280;16501;51.462;14.346;2023-12-20T12:59:35;99387.19;;;5.27;100.00
29569;BME280;16501;51.462;14.346;2023-12-20T13:02:00;99389.66;;;5.25;100.00
29569;BME280;16501;51.462;14.346;2023-12-20T13:04:25;99368.97;;;5.26;100.00
29569;BME280;16501;51.462;14.346;2023-12-20T13:06:51;99382.53;;;5.24;100.00
29569;BME280;16501;51.462;14.346;2023-12-20T13:09:16;99380.72;;;5.30;100.00
29569;BME280;16501;51.462;14.346;2023-12-20T13:11:41;99347.16;;;5.15;100.00
29569;BME280;16501;51.462;14.346;2023-12-20T13:14:07;99369.44;;;5.34;100.00
29569;BME280;16501;51.462;14.346;2023-12-20T13:16:35;99341.28;;;5.13;100.00
29569;BME280;16501;51.462;14.346;2023-12-20T13:19:01;99381.97;;;5.38;100.00
29569;BME280;16501;51.462;14.346;2023-12-20T13:21:26;99366.53;;;5.37;100.00
29569;BME280;16501;51.462;14.346;2023-12-20T13:23:51;99355.41;;;5.37;100.00
29569;BME280;16501;51.462;14.346;2023-12-20T13:26:17;99363.75;;;5.37;100.00
29569;BME280;16501;51.462;14.346;2023-12-20T13:28:42;99350.91;;;5.31;100.00
29569;BME280;16501;51.462;14.346;2023-12-20T13:31:07;99364.19;;;5.36;100.00
29569;BME280;16501;51.462;14.346;2023-12-20T13:33:33;99340.69;;;5.27;100.00
29569;BME280;16501;51.462;14.346;2023-12-20T13:35:58;99343.66;;;5.33;100.00
29569;BME280;16501;51.462;14.346;2023-12-20T13:38:24;99345.63;;;5.23;100.00
29569;BME280;16501;51.462;14.346;2023-12-20T13:40:50;99348.28;;;5.36;100.00
29569;BME280;16501;51.462;14.346;2023-12-20T13:43:15;99348.44;;;5.33;100.00
29569;BME280;16501;51.462;14.346;2023-12-20T13:45:45;99345.19;;;5.34;100.00
29569;BME280;16501;51.462;14.346;2023-12-20T13:48:10;99308.09;;;5.19;100.00
29569;BME280;16501;51.462;14.346;2023-12-20T13:50:36;99326.66;;;5.31;100.00
29569;BME280;16501;51.462;14.346;2023-12-20T13:53:01;99344.91;;;5.41;100.00
29569;BME280;16501;51.462;14.346;2023-12-20T13:55:29;99326.03;;;5.36;100.00
29569;BME280;16501;51.462;14.346;2023-12-20T13:57:54;99312.91;;;5.27;100.00
29569;BME280;16501;51.462;14.346;2023-12-20T14:00:19;99314.94;;;5.36;100.00
29569;BME280;16501;51.462;14.346;2023-12-20T14:02:45;99330.69;;;5.30;100.00
29569;BME280;16501;51.462;14.346;2023-12-20T14:05:11;99328.38;;;5.38;100.00
29569;BME280;16501;51.462;14.346;2023-12-20T14:07:36;99297.47;;;5.26;100.00
29569;BME280;16501;51.462;14.346;2023-12-20T14:10:02;99293.00;;;5.29;100.00
29569;BME280;16501;51.462;14.346;2023-12-20T14:12:28;99288.38;;;5.26;100.00
29569;BME280;16501;51.462;14.346;2023-12-20T14:14:53;99274.94;;;5.24;100.00
29569;BME280;16501;51.462;14.346;2023-12-20T14:17:21;99282.66;;;5.29;100.00